sensor_id;sensor_type;location;lat;lon;timestamp;pressure;altitude;pressure_sealevel;temperature
40968;BMP280;57377;45.130;6.038;2023-02-10T00:00:00;94189.09;;;1.48
40968;BMP280;57377;45.130;6.038;2023-02-10T00:02:28;94195.69;;;1.76
40968;BMP280;57377;45.130;6.038;2023-02-10T00:04:54;94197.50;;;1.88
40968;BMP280;57377;45.130;6.038;2023-02-10T00:07:19;94191.97;;;1.91
40968;BMP280;57377;45.130;6.038;2023-02-10T00:09:45;94202.81;;;1.80
40968;BMP280;57377;45.130;6.038;2023-02-10T00:12:10;94202.97;;;1.72
40968;BMP280;57377;45.130;6.038;2023-02-10T00:14:37;94202.59;;;1.75
40968;BMP280;57377;45.130;6.038;2023-02-10T00:17:03;94197.63;;;1.67
40968;BMP280;57377;45.130;6.038;2023-02-10T00:19:29;94207.06;;;1.54
40968;BMP280;57377;45.130;6.038;2023-02-10T00:21:56;94211.56;;;1.39
40968;BMP280;57377;45.130;6.038;2023-02-10T00:24:21;94208.03;;;1.53
40968;BMP280;57377;45.130;6.038;2023-02-10T00:26:47;94205.78;;;1.96
40968;BMP280;57377;45.130;6.038;2023-02-10T00:29:13;94205.38;;;1.80
40968;BMP280;57377;45.130;6.038;2023-02-10T00:31:38;94210.53;;;1.93
40968;BMP280;57377;45.130;6.038;2023-02-10T00:34:04;94216.88;;;1.97
40968;BMP280;57377;45.130;6.038;2023-02-10T00:36:29;94212.56;;;2.23
40968;BMP280;57377;45.130;6.038;2023-02-10T00:38:55;94204.25;;;2.02
40968;BMP280;57377;45.130;6.038;2023-02-10T00:41:22;94210.38;;;2.14
40968;BMP280;57377;45.130;6.038;2023-02-10T00:43:47;94197.31;;;1.96
40968;BMP280;57377;45.130;6.038;2023-02-10T00:46:15;94211.91;;;1.83
40968;BMP280;57377;45.130;6.038;2023-02-10T00:48:41;94206.22;;;2.00
40968;BMP280;57377;45.130;6.038;2023-02-10T00:51:08;94216.41;;;1.74
40968;BMP280;57377;45.130;6.038;2023-02-10T00:53:34;94219.09;;;1.54
40968;BMP280;57377;45.130;6.038;2023-02-10T00:55:59;94223.41;;;1.47
40968;BMP280;57377;45.130;6.038;2023-02-10T00:58:25;94222.38;;;1.35
40968;BMP280;57377;45.130;6.038;2023-02-10T01:00:51;94225.50;;;1.30
40968;BMP280;57377;45.130;6.038;2023-02-10T01:03:16;94222.88;;;1.18
40968;BMP280;57377;45.130;6.038;2023-02-10T01:05:42;94220.53;;;1.23
40968;BMP280;57377;45.130;6.038;2023-02-10T01:08:08;94214.22;;;1.19
40968;BMP280;57377;45.130;6.038;2023-02-10T01:10:35;94207.88;;;1.15
40968;BMP280;57377;45.130;6.038;2023-02-10T01:13:03;94196.91;;;1.33
40968;BMP280;57377;45.130;6.038;2023-02-10T01:15:29;94207.63;;;0.70
40968;BMP280;57377;45.130;6.038;2023-02-10T01:17:54;94204.28;;;1.09
40968;BMP280;57377;45.130;6.038;2023-02-10T01:20:20;94209.91;;;0.92
40968;BMP280;57377;45.130;6.038;2023-02-10T01:22:45;94207.09;;;1.14
40968;BMP280;57377;45.130;6.038;2023-02-10T01:25:11;94204.44;;;1.41
40968;BMP280;57377;45.130;6.038;2023-02-10T01:27:36;94191.41;;;1.30
40968;BMP280;57377;45.130;6.038;2023-02-10T01:30:03;94200.69;;;1.44
40968;BMP280;57377;45.130;6.038;2023-02-10T01:32:28;94202.56;;;1.62
40968;BMP280;57377;45.130;6.038;2023-02-10T01:34:54;94206.91;;;1.16
40968;BMP280;57377;45.130;6.038;2023-02-10T01:37:19;94207.81;;;0.48
40968;BMP280;57377;45.130;6.038;2023-02-10T01:39:44;94204.25;;;0.96
40968;BMP280;57377;45.130;6.038;2023-02-10T01:42:14;94202.78;;;0.88
40968;BMP280;57377;45.130;6.038;2023-02-10T01:47:06;94185.84;;;1.20
40968;BMP280;57377;45.130;6.038;2023-02-10T01:49:35;94182.94;;;1.36
40968;BMP280;57377;45.130;6.038;2023-02-10T01:52:03;94186.69;;;1.40
40968;BMP280;57377;45.130;6.038;2023-02-10T01:54:33;94179.88;;;1.66
40968;BMP280;57377;45.130;6.038;2023-02-10T01:57:00;94177.06;;;1.55
40968;BMP280;57377;45.130;6.038;2023-02-10T01:59:29;94179.53;;;1.29
40968;BMP280;57377;45.130;6.038;2023-02-10T02:01:55;94180.88;;;1.19
40968;BMP280;57377;45.130;6.038;2023-02-10T02:04:21;94176.94;;;0.83
40968;BMP280;57377;45.130;6.038;2023-02-10T02:06:47;94175.06;;;0.64
40968;BMP280;57377;45.130;6.038;2023-02-10T02:09:13;94168.97;;;0.98
40968;BMP280;57377;45.130;6.038;2023-02-10T02:14:44;94150.34;;;1.24
40968;BMP280;57377;45.130;6.038;2023-02-10T02:20:35;94161.63;;;0.62
40968;BMP280;57377;45.130;6.038;2023-02-10T02:31:57;94159.81;;;1.29
40968;BMP280;57377;45.130;6.038;2023-02-10T02:34:38;94147.09;;;1.02
40968;BMP280;57377;45.130;6.038;2023-02-10T02:37:10;94154.88;;;0.82
40968;BMP280;57377;45.130;6.038;2023-02-10T02:39:36;94154.00;;;0.68
40968;BMP280;57377;45.130;6.038;2023-02-10T02:44:39;94137.75;;;0.89
40968;BMP280;57377;45.130;6.038;2023-02-10T02:56:24;94133.34;;;1.16
40968;BMP280;57377;45.130;6.038;2023-02-10T02:58:59;94127.13;;;1.38
40968;BMP280;57377;45.130;6.038;2023-02-10T03:04:06;94110.09;;;0.71
40968;BMP280;57377;45.130;6.038;2023-02-10T03:06:31;94119.91;;;1.08
40968;BMP280;57377;45.130;6.038;2023-02-10T03:08:57;94119.53;;;1.17
40968;BMP280;57377;45.130;6.038;2023-02-10T03:11:22;94117.88;;;1.50
40968;BMP280;57377;45.130;6.038;2023-02-10T03:13:48;94125.38;;;0.92
40968;BMP280;57377;45.130;6.038;2023-02-10T03:16:13;94122.81;;;0.92
40968;BMP280;57377;45.130;6.038;2023-02-10T03:18:38;94117.25;;;0.89
40968;BMP280;57377;45.130;6.038;2023-02-10T03:21:05;94109.22;;;0.92
40968;BMP280;57377;45.130;6.038;2023-02-10T03:23:30;94105.41;;;0.81
40968;BMP280;57377;45.130;6.038;2023-02-10T03:26:00;94104.56;;;1.14
40968;BMP280;57377;45.130;6.038;2023-02-10T03:28:25;94093.56;;;1.20
40968;BMP280;57377;45.130;6.038;2023-02-10T03:30:51;94107.53;;;1.11
40968;BMP280;57377;45.130;6.038;2023-02-10T03:33:17;94105.03;;;1.43
40968;BMP280;57377;45.130;6.038;2023-02-10T03:35:44;94103.97;;;1.12
40968;BMP280;57377;45.130;6.038;2023-02-10T03:38:10;94119.81;;;0.89
40968;BMP280;57377;45.130;6.038;2023-02-10T03:40:36;94111.03;;;0.64
40968;BMP280;57377;45.130;6.038;2023-02-10T03:43:02;94115.25;;;0.78
40968;BMP280;57377;45.130;6.038;2023-02-10T03:45:28;94112.00;;;1.03
40968;BMP280;57377;45.130;6.038;2023-02-10T03:47:53;94114.88;;;0.47
40968;BMP280;57377;45.130;6.038;2023-02-10T03:50:19;94119.59;;;0.44
40968;BMP280;57377;45.130;6.038;2023-02-10T03:52:44;94119.03;;;0.48
40968;BMP280;57377;45.130;6.038;2023-02-10T03:55:09;94116.59;;;0.67
40968;BMP280;57377;45.130;6.038;2023-02-10T03:57:39;94112.34;;;0.94
40968;BMP280;57377;45.130;6.038;2023-02-10T04:00:05;94110.47;;;1.15
40968;BMP280;57377;45.130;6.038;2023-02-10T04:02:31;94110.06;;;1.11
40968;BMP280;57377;45.130;6.038;2023-02-10T04:04:56;94120.81;;;0.88
40968;BMP280;57377;45.130;6.038;2023-02-10T04:07:21;94118.09;;;0.95
40968;BMP280;57377;45.130;6.038;2023-02-10T04:09:47;94124.84;;;0.69
40968;BMP280;57377;45.130;6.038;2023-02-10T04:12:12;94114.75;;;0.28
40968;BMP280;57377;45.130;6.038;2023-02-10T04:14:37;94119.50;;;0.31
40968;BMP280;57377;45.130;6.038;2023-02-10T04:17:03;94115.31;;;0.57
40968;BMP280;57377;45.130;6.038;2023-02-10T04:19:28;94118.56;;;0.38
40968;BMP280;57377;45.130;6.038;2023-02-10T04:21:54;94131.91;;;0.07
40968;BMP280;57377;45.130;6.038;2023-02-10T04:24:19;94124.16;;;-0.06
40968;BMP280;57377;45.130;6.038;2023-02-10T04:26:45;94124.53;;;0.18
40968;BMP280;57377;45.130;6.038;2023-02-10T04:29:10;94129.69;;;0.52
40968;BMP280;57377;45.130;6.038;2023-02-10T04:31:36;94131.47;;;0.58
40968;BMP280;57377;45.130;6.038;2023-02-10T04:34:01;94141.38;;;0.67
40968;BMP280;57377;45.130;6.038;2023-02-10T04:36:26;94138.69;;;0.75
40968;BMP280;57377;45.130;6.038;2023-02-10T04:38:52;94137.41;;;0.58
40968;BMP280;57377;45.130;6.038;2023-02-10T04:41:17;94147.78;;;0.50
40968;BMP280;57377;45.130;6.038;2023-02-10T04:43:42;94144.78;;;0.74
40968;BMP280;57377;45.130;6.038;2023-02-10T04:46:08;94142.88;;;0.49
40968;BMP280;57377;45.130;6.038;2023-02-10T04:48:33;94139.16;;;0.91
40968;BMP280;57377;45.130;6.038;2023-02-10T04:51:00;94131.88;;;0.95
40968;BMP280;57377;45.130;6.038;2023-02-10T04:53:30;94135.06;;;0.63
40968;BMP280;57377;45.130;6.038;2023-02-10T04:55:55;94139.03;;;0.38
40968;BMP280;57377;45.130;6.038;2023-02-10T04:58:20;94145.69;;;0.60
40968;BMP280;57377;45.130;6.038;2023-02-10T05:00:47;94146.34;;;0.68
40968;BMP280;57377;45.130;6.038;2023-02-10T05:03:12;94150.66;;;1.01
40968;BMP280;57377;45.130;6.038;2023-02-10T05:05:38;94145.59;;;0.81
40968;BMP280;57377;45.130;6.038;2023-02-10T05:08:03;94138.84;;;0.40
40968;BMP280;57377;45.130;6.038;2023-02-10T05:10:28;94137.09;;;0.40
40968;BMP280;57377;45.130;6.038;2023-02-10T05:12:54;94133.19;;;0.78
40968;BMP280;57377;45.130;6.038;2023-02-10T05:15:19;94140.59;;;0.66
40968;BMP280;57377;45.130;6.038;2023-02-10T05:17:45;94138.41;;;0.63
40968;BMP280;57377;45.130;6.038;2023-02-10T05:20:10;94143.59;;;0.70
40968;BMP280;57377;45.130;6.038;2023-02-10T05:22:37;94142.75;;;0.63
40968;BMP280;57377;45.130;6.038;2023-02-10T05:25:03;94145.38;;;0.42
40968;BMP280;57377;45.130;6.038;2023-02-10T05:27:28;94156.00;;;0.12
40968;BMP280;57377;45.130;6.038;2023-02-10T05:29:54;94162.91;;;0.18
40968;BMP280;57377;45.130;6.038;2023-02-10T05:32:19;94156.38;;;0.36
40968;BMP280;57377;45.130;6.038;2023-02-10T05:34:44;94153.34;;;0.54
40968;BMP280;57377;45.130;6.038;2023-02-10T05:37:10;94153.06;;;0.42
40968;BMP280;57377;45.130;6.038;2023-02-10T05:39:35;94157.50;;;0.07
40968;BMP280;57377;45.130;6.038;2023-02-10T05:42:00;94155.94;;;0.06
40968;BMP280;57377;45.130;6.038;2023-02-10T05:44:27;94158.88;;;0.30
40968;BMP280;57377;45.130;6.038;2023-02-10T05:46:53;94157.31;;;0.35
40968;BMP280;57377;45.130;6.038;2023-02-10T05:49:19;94172.50;;;0.37
40968;BMP280;57377;45.130;6.038;2023-02-10T05:51:45;94161.91;;;0.40
40968;BMP280;57377;45.130;6.038;2023-02-10T05:54:11;94171.31;;;0.60
40968;BMP280;57377;45.130;6.038;2023-02-10T05:56:37;94168.97;;;0.65
40968;BMP280;57377;45.130;6.038;2023-02-10T05:59:03;94178.41;;;0.37
40968;BMP280;57377;45.130;6.038;2023-02-10T06:01:29;94178.25;;;0.39
40968;BMP280;57377;45.130;6.038;2023-02-10T06:03:54;94176.63;;;0.11
40968;BMP280;57377;45.130;6.038;2023-02-10T06:06:20;94176.75;;;0.51
40968;BMP280;57377;45.130;6.038;2023-02-10T06:08:45;94183.47;;;0.31
40968;BMP280;57377;45.130;6.038;2023-02-10T06:11:11;94181.84;;;0.24
40968;BMP280;57377;45.130;6.038;2023-02-10T06:13:36;94179.72;;;0.27
40968;BMP280;57377;45.130;6.038;2023-02-10T06:16:02;94180.56;;;0.34
40968;BMP280;57377;45.130;6.038;2023-02-10T06:18:29;94185.53;;;0.15
40968;BMP280;57377;45.130;6.038;2023-02-10T06:20:54;94196.41;;;0.23
40968;BMP280;57377;45.130;6.038;2023-02-10T06:23:20;94189.28;;;0.39
40968;BMP280;57377;45.130;6.038;2023-02-10T06:25:46;94180.25;;;0.43
40968;BMP280;57377;45.130;6.038;2023-02-10T06:28:12;94175.72;;;0.18
40968;BMP280;57377;45.130;6.038;2023-02-10T06:30:37;94187.31;;;0.41
40968;BMP280;57377;45.130;6.038;2023-02-10T06:33:02;94188.19;;;0.28
40968;BMP280;57377;45.130;6.038;2023-02-10T06:35:28;94186.56;;;0.47
40968;BMP280;57377;45.130;6.038;2023-02-10T06:37:53;94193.13;;;-0.12
40968;BMP280;57377;45.130;6.038;2023-02-10T06:40:19;94195.09;;;0.27
40968;BMP280;57377;45.130;6.038;2023-02-10T06:42:44;94187.03;;;0.30
40968;BMP280;57377;45.130;6.038;2023-02-10T06:45:10;94191.44;;;0.42
40968;BMP280;57377;45.130;6.038;2023-02-10T06:47:35;94197.03;;;0.25
40968;BMP280;57377;45.130;6.038;2023-02-10T06:50:02;94195.03;;;0.21
40968;BMP280;57377;45.130;6.038;2023-02-10T06:52:27;94196.44;;;0.02
40968;BMP280;57377;45.130;6.038;2023-02-10T06:54:53;94196.78;;;-0.01
40968;BMP280;57377;45.130;6.038;2023-02-10T06:57:18;94198.44;;;0.07
40968;BMP280;57377;45.130;6.038;2023-02-10T06:59:44;94205.38;;;-0.08
40968;BMP280;57377;45.130;6.038;2023-02-10T07:02:11;94210.75;;;-0.03
40968;BMP280;57377;45.130;6.038;2023-02-10T07:04:36;94216.25;;;0.15
40968;BMP280;57377;45.130;6.038;2023-02-10T07:07:02;94217.88;;;-0.19
40968;BMP280;57377;45.130;6.038;2023-02-10T07:09:27;94219.78;;;-0.07
40968;BMP280;57377;45.130;6.038;2023-02-10T07:11:53;94225.75;;;0.00
40968;BMP280;57377;45.130;6.038;2023-02-10T07:14:18;94222.16;;;0.15
40968;BMP280;57377;45.130;6.038;2023-02-10T07:16:43;94223.31;;;0.13
40968;BMP280;57377;45.130;6.038;2023-02-10T07:19:09;94225.56;;;0.22
40968;BMP280;57377;45.130;6.038;2023-02-10T07:21:35;94229.63;;;0.17
40968;BMP280;57377;45.130;6.038;2023-02-10T07:24:00;94232.44;;;0.01
40968;BMP280;57377;45.130;6.038;2023-02-10T07:26:27;94232.06;;;-0.17
40968;BMP280;57377;45.130;6.038;2023-02-10T07:28:52;94238.13;;;-0.38
40968;BMP280;57377;45.130;6.038;2023-02-10T07:31:18;94231.94;;;-0.09
40968;BMP280;57377;45.130;6.038;2023-02-10T07:33:43;94234.63;;;0.04
40968;BMP280;57377;45.130;6.038;2023-02-10T07:36:09;94223.44;;;0.05
40968;BMP280;57377;45.130;6.038;2023-02-10T07:38:35;94237.00;;;0.05
40968;BMP280;57377;45.130;6.038;2023-02-10T07:41:03;94240.16;;;0.28
40968;BMP280;57377;45.130;6.038;2023-02-10T07:43:29;94239.66;;;-0.02
40968;BMP280;57377;45.130;6.038;2023-02-10T07:45:54;94238.75;;;-0.16
40968;BMP280;57377;45.130;6.038;2023-02-10T07:48:19;94243.28;;;0.03
40968;BMP280;57377;45.130;6.038;2023-02-10T07:50:46;94252.59;;;-0.45
40968;BMP280;57377;45.130;6.038;2023-02-10T07:53:12;94243.66;;;0.00
40968;BMP280;57377;45.130;6.038;2023-02-10T07:55:37;94245.16;;;0.36
40968;BMP280;57377;45.130;6.038;2023-02-10T07:58:04;94246.66;;;0.24
40968;BMP280;57377;45.130;6.038;2023-02-10T08:00:29;94246.81;;;0.02
40968;BMP280;57377;45.130;6.038;2023-02-10T08:02:55;94246.69;;;0.31
40968;BMP280;57377;45.130;6.038;2023-02-10T08:05:20;94250.44;;;0.55
40968;BMP280;57377;45.130;6.038;2023-02-10T08:07:47;94254.91;;;0.74
40968;BMP280;57377;45.130;6.038;2023-02-10T08:10:12;94261.34;;;0.43
40968;BMP280;57377;45.130;6.038;2023-02-10T08:12:38;94269.28;;;0.06
40968;BMP280;57377;45.130;6.038;2023-02-10T08:15:05;94264.72;;;0.23
40968;BMP280;57377;45.130;6.038;2023-02-10T08:17:31;94264.84;;;0.35
40968;BMP280;57377;45.130;6.038;2023-02-10T08:19:56;94266.56;;;-0.27
40968;BMP280;57377;45.130;6.038;2023-02-10T08:22:21;94273.41;;;-0.13
40968;BMP280;57377;45.130;6.038;2023-02-10T08:24:47;94266.69;;;0.41
40968;BMP280;57377;45.130;6.038;2023-02-10T08:27:12;94266.69;;;0.00
40968;BMP280;57377;45.130;6.038;2023-02-10T08:29:37;94265.22;;;-0.09
40968;BMP280;57377;45.130;6.038;2023-02-10T08:32:03;94262.41;;;0.28
40968;BMP280;57377;45.130;6.038;2023-02-10T08:34:29;94272.38;;;0.02
40968;BMP280;57377;45.130;6.038;2023-02-10T08:36:54;94270.88;;;-0.28
40968;BMP280;57377;45.130;6.038;2023-02-10T08:39:19;94277.13;;;-0.16
40968;BMP280;57377;45.130;6.038;2023-02-10T08:41:45;94282.91;;;-0.07
40968;BMP280;57377;45.130;6.038;2023-02-10T08:44:14;94280.69;;;0.04
40968;BMP280;57377;45.130;6.038;2023-02-10T08:46:39;94276.06;;;0.14
40968;BMP280;57377;45.130;6.038;2023-02-10T08:49:05;94277.88;;;0.61
40968;BMP280;57377;45.130;6.038;2023-02-10T08:51:31;94273.53;;;0.89
40968;BMP280;57377;45.130;6.038;2023-02-10T08:54:00;94272.81;;;0.67
40968;BMP280;57377;45.130;6.038;2023-02-10T08:56:25;94266.53;;;0.97
40968;BMP280;57377;45.130;6.038;2023-02-10T08:58:51;94274.78;;;0.72
40968;BMP280;57377;45.130;6.038;2023-02-10T09:01:21;94274.31;;;0.83
40968;BMP280;57377;45.130;6.038;2023-02-10T09:03:48;94282.53;;;0.51
40968;BMP280;57377;45.130;6.038;2023-02-10T09:06:20;94281.91;;;0.49
40968;BMP280;57377;45.130;6.038;2023-02-10T09:08:46;94281.19;;;0.34
40968;BMP280;57377;45.130;6.038;2023-02-10T09:11:13;94287.25;;;0.33
40968;BMP280;57377;45.130;6.038;2023-02-10T09:13:38;94281.91;;;0.49
40968;BMP280;57377;45.130;6.038;2023-02-10T09:16:04;94282.03;;;0.41
40968;BMP280;57377;45.130;6.038;2023-02-10T09:18:29;94275.41;;;0.74
40968;BMP280;57377;45.130;6.038;2023-02-10T09:20:57;94279.47;;;1.16
40968;BMP280;57377;45.130;6.038;2023-02-10T09:23:22;94272.81;;;2.40
40968;BMP280;57377;45.130;6.038;2023-02-10T09:25:56;94276.69;;;3.70
40968;BMP280;57377;45.130;6.038;2023-02-10T09:28:22;94263.78;;;4.81
40968;BMP280;57377;45.130;6.038;2023-02-10T09:30:48;94259.38;;;5.89
40968;BMP280;57377;45.130;6.038;2023-02-10T09:33:13;94262.94;;;6.06
40968;BMP280;57377;45.130;6.038;2023-02-10T09:35:39;94264.25;;;6.15
40968;BMP280;57377;45.130;6.038;2023-02-10T09:38:06;94252.09;;;7.87
40968;BMP280;57377;45.130;6.038;2023-02-10T09:40:34;94257.88;;;8.28
40968;BMP280;57377;45.130;6.038;2023-02-10T09:46:16;94249.25;;;8.66
40968;BMP280;57377;45.130;6.038;2023-02-10T09:51:26;94254.53;;;8.55
40968;BMP280;57377;45.130;6.038;2023-02-10T09:53:58;94243.38;;;8.70
40968;BMP280;57377;45.130;6.038;2023-02-10T09:56:24;94246.22;;;8.85
40968;BMP280;57377;45.130;6.038;2023-02-10T09:58:54;94256.47;;;7.98
40968;BMP280;57377;45.130;6.038;2023-02-10T10:04:03;94239.13;;;8.64
40968;BMP280;57377;45.130;6.038;2023-02-10T10:06:37;94251.28;;;8.48
40968;BMP280;57377;45.130;6.038;2023-02-10T10:11:38;94260.06;;;7.97
40968;BMP280;57377;45.130;6.038;2023-02-10T10:14:15;94256.66;;;7.68
40968;BMP280;57377;45.130;6.038;2023-02-10T10:28:04;94260.06;;;6.14
40968;BMP280;57377;45.130;6.038;2023-02-10T10:30:44;94259.72;;;6.10
40968;BMP280;57377;45.130;6.038;2023-02-10T10:35:46;94257.56;;;6.07
40968;BMP280;57377;45.130;6.038;2023-02-10T10:38:24;94246.94;;;5.98
40968;BMP280;57377;45.130;6.038;2023-02-10T10:40:52;94246.94;;;5.98
40968;BMP280;57377;45.130;6.038;2023-02-10T10:43:47;94254.16;;;5.96
40968;BMP280;57377;45.130;6.038;2023-02-10T10:46:14;94251.13;;;5.99
40968;BMP280;57377;45.130;6.038;2023-02-10T10:48:42;94252.88;;;6.16
40968;BMP280;57377;45.130;6.038;2023-02-10T10:51:08;94253.66;;;6.16
40968;BMP280;57377;45.130;6.038;2023-02-10T10:56:02;94248.75;;;6.26
40968;BMP280;57377;45.130;6.038;2023-02-10T10:58:39;94253.66;;;6.16
40968;BMP280;57377;45.130;6.038;2023-02-10T11:01:05;94248.22;;;6.24
40968;BMP280;57377;45.130;6.038;2023-02-10T11:03:32;94252.03;;;5.69
40968;BMP280;57377;45.130;6.038;2023-02-10T11:06:08;94251.94;;;4.43
40968;BMP280;57377;45.130;6.038;2023-02-10T11:08:55;94252.28;;;5.01
40968;BMP280;57377;45.130;6.038;2023-02-10T11:11:35;94258.34;;;4.89
40968;BMP280;57377;45.130;6.038;2023-02-10T11:14:04;94263.41;;;5.02
40968;BMP280;57377;45.130;6.038;2023-02-10T11:16:41;94254.03;;;5.07
40968;BMP280;57377;45.130;6.038;2023-02-10T11:19:17;94254.13;;;5.60
40968;BMP280;57377;45.130;6.038;2023-02-10T11:21:43;94258.03;;;4.79
40968;BMP280;57377;45.130;6.038;2023-02-10T11:24:17;94259.25;;;4.77
40968;BMP280;57377;45.130;6.038;2023-02-10T11:26:56;94261.38;;;5.70
40968;BMP280;57377;45.130;6.038;2023-02-10T11:29:22;94263.50;;;5.13
40968;BMP280;57377;45.130;6.038;2023-02-10T11:31:50;94259.31;;;5.96
40968;BMP280;57377;45.130;6.038;2023-02-10T11:34:37;94261.22;;;5.65
40968;BMP280;57377;45.130;6.038;2023-02-10T11:37:21;94251.78;;;6.23
40968;BMP280;57377;45.130;6.038;2023-02-10T11:39:48;94252.03;;;6.62
40968;BMP280;57377;45.130;6.038;2023-02-10T11:42:18;94252.47;;;6.01
40968;BMP280;57377;45.130;6.038;2023-02-10T11:44:57;94240.66;;;6.52
40968;BMP280;57377;45.130;6.038;2023-02-10T11:47:25;94234.47;;;6.53
40968;BMP280;57377;45.130;6.038;2023-02-10T11:49:51;94231.47;;;6.56
40968;BMP280;57377;45.130;6.038;2023-02-10T11:52:22;94232.94;;;6.74
40968;BMP280;57377;45.130;6.038;2023-02-10T11:54:49;94231.28;;;6.80
40968;BMP280;57377;45.130;6.038;2023-02-10T12:09:00;94214.09;;;7.42
40968;BMP280;57377;45.130;6.038;2023-02-10T12:11:46;94214.09;;;8.03
40968;BMP280;57377;45.130;6.038;2023-02-10T12:17:30;94205.88;;;8.34
40968;BMP280;57377;45.130;6.038;2023-02-10T12:36:11;94185.22;;;8.39
40968;BMP280;57377;45.130;6.038;2023-02-10T12:52:50;94190.75;;;8.59
40968;BMP280;57377;45.130;6.038;2023-02-10T12:55:23;94189.06;;;8.36
40968;BMP280;57377;45.130;6.038;2023-02-10T12:58:08;94183.75;;;8.43
40968;BMP280;57377;45.130;6.038;2023-02-10T13:00:37;94186.53;;;8.53
40968;BMP280;57377;45.130;6.038;2023-02-10T13:03:12;94176.38;;;9.00
40968;BMP280;57377;45.130;6.038;2023-02-10T13:05:47;94183.47;;;8.88
40968;BMP280;57377;45.130;6.038;2023-02-10T13:08:33;94182.69;;;9.04
40968;BMP280;57377;45.130;6.038;2023-02-10T13:11:03;94179.59;;;9.07
40968;BMP280;57377;45.130;6.038;2023-02-10T13:13:32;94176.06;;;9.13
40968;BMP280;57377;45.130;6.038;2023-02-10T13:15:59;94181.72;;;9.10
40968;BMP280;57377;45.130;6.038;2023-02-10T13:18:28;94174.75;;;8.94
40968;BMP280;57377;45.130;6.038;2023-02-10T13:28:53;94173.06;;;8.56
40968;BMP280;57377;45.130;6.038;2023-02-10T13:31:40;94168.81;;;8.50
40968;BMP280;57377;45.130;6.038;2023-02-10T13:34:31;94163.19;;;8.53
40968;BMP280;57377;45.130;6.038;2023-02-10T13:40:03;94163.44;;;8.40
40968;BMP280;57377;45.130;6.038;2023-02-10T13:42:37;94164.09;;;8.47
40968;BMP280;57377;45.130;6.038;2023-02-10T13:45:12;94169.63;;;8.50
40968;BMP280;57377;45.130;6.038;2023-02-10T13:47:49;94159.94;;;8.18
40968;BMP280;57377;45.130;6.038;2023-02-10T13:50:27;94161.59;;;8.35
40968;BMP280;57377;45.130;6.038;2023-02-10T13:52:54;94165.03;;;8.41
40968;BMP280;57377;45.130;6.038;2023-02-10T13:55:43;94162.97;;;8.27
40968;BMP280;57377;45.130;6.038;2023-02-10T14:00:46;94154.66;;;8.41
40968;BMP280;57377;45.130;6.038;2023-02-10T14:06:00;94150.22;;;8.25
40968;BMP280;57377;45.130;6.038;2023-02-10T14:17:25;94152.72;;;8.20
40968;BMP280;57377;45.130;6.038;2023-02-10T14:20:01;94158.41;;;8.17
40968;BMP280;57377;45.130;6.038;2023-02-10T14:23:15;94147.84;;;8.07
40968;BMP280;57377;45.130;6.038;2023-02-10T14:26:34;94162.53;;;8.18
40968;BMP280;57377;45.130;6.038;2023-02-10T14:33:01;94156.66;;;8.23
40968;BMP280;57377;45.130;6.038;2023-02-10T14:42:42;94158.34;;;7.90
40968;BMP280;57377;45.130;6.038;2023-02-10T14:45:50;94159.88;;;7.63
40968;BMP280;57377;45.130;6.038;2023-02-10T14:48:39;94164.00;;;7.87
40968;BMP280;57377;45.130;6.038;2023-02-10T14:54:44;94170.56;;;7.78
40968;BMP280;57377;45.130;6.038;2023-02-10T15:05:30;94172.16;;;7.67
40968;BMP280;57377;45.130;6.038;2023-02-10T15:23:57;94177.97;;;7.35
40968;BMP280;57377;45.130;6.038;2023-02-10T15:26:49;94182.38;;;7.35
40968;BMP280;57377;45.130;6.038;2023-02-10T15:29:38;94185.16;;;7.22
40968;BMP280;57377;45.130;6.038;2023-02-10T15:32:16;94181.00;;;7.10
40968;BMP280;57377;45.130;6.038;2023-02-10T15:38:07;94182.47;;;6.95
40968;BMP280;57377;45.130;6.038;2023-02-10T15:40:59;94187.41;;;6.96
40968;BMP280;57377;45.130;6.038;2023-02-10T15:43:34;94180.34;;;7.03
40968;BMP280;57377;45.130;6.038;2023-02-10T15:46:14;94185.19;;;7.11
40968;BMP280;57377;45.130;6.038;2023-02-10T15:48:42;94186.06;;;6.82
40968;BMP280;57377;45.130;6.038;2023-02-10T15:51:22;94186.06;;;6.82
40968;BMP280;57377;45.130;6.038;2023-02-10T15:53:51;94192.91;;;6.66
40968;BMP280;57377;45.130;6.038;2023-02-10T15:57:17;94192.22;;;6.18
40968;BMP280;57377;45.130;6.038;2023-02-10T15:59:58;94199.28;;;6.11
40968;BMP280;57377;45.130;6.038;2023-02-10T16:28:45;94222.50;;;5.65
40968;BMP280;57377;45.130;6.038;2023-02-10T16:31:46;94224.19;;;5.71
40968;BMP280;57377;45.130;6.038;2023-02-10T16:37:03;94235.41;;;5.65
40968;BMP280;57377;45.130;6.038;2023-02-10T16:42:51;94237.41;;;5.63
40968;BMP280;57377;45.130;6.038;2023-02-10T16:52:55;94239.25;;;5.38
40968;BMP280;57377;45.130;6.038;2023-02-10T17:46:06;94265.66;;;4.68
40968;BMP280;57377;45.130;6.038;2023-02-10T17:48:32;94266.47;;;4.68
40968;BMP280;57377;45.130;6.038;2023-02-10T17:51:21;94277.22;;;4.59
40968;BMP280;57377;45.130;6.038;2023-02-10T17:53:48;94276.06;;;4.55
40968;BMP280;57377;45.130;6.038;2023-02-10T17:56:17;94276.53;;;4.39
40968;BMP280;57377;45.130;6.038;2023-02-10T17:58:43;94281.31;;;4.42
40968;BMP280;57377;45.130;6.038;2023-02-10T18:01:19;94279.28;;;4.14
40968;BMP280;57377;45.130;6.038;2023-02-10T18:06:36;94285.69;;;4.35
40968;BMP280;57377;45.130;6.038;2023-02-10T18:13:12;94300.41;;;4.28
40968;BMP280;57377;45.130;6.038;2023-02-10T18:16:12;94313.19;;;4.11
40968;BMP280;57377;45.130;6.038;2023-02-10T18:18:54;94305.78;;;4.20
40968;BMP280;57377;45.130;6.038;2023-02-10T18:21:22;94302.97;;;4.28
40968;BMP280;57377;45.130;6.038;2023-02-10T18:34:52;94310.03;;;4.02
40968;BMP280;57377;45.130;6.038;2023-02-10T18:52:26;94318.09;;;4.18
40968;BMP280;57377;45.130;6.038;2023-02-10T18:55:21;94328.22;;;4.14
40968;BMP280;57377;45.130;6.038;2023-02-10T21:46:32;94309.03;;;2.70
40968;BMP280;57377;45.130;6.038;2023-02-10T22:11:21;94311.81;;;3.07
40968;BMP280;57377;45.130;6.038;2023-02-10T22:13:49;94314.19;;;3.15
40968;BMP280;57377;45.130;6.038;2023-02-10T22:16:16;94312.97;;;2.86
40968;BMP280;57377;45.130;6.038;2023-02-10T22:18:42;94314.19;;;2.89
40968;BMP280;57377;45.130;6.038;2023-02-10T22:21:12;94306.66;;;2.88
40968;BMP280;57377;45.130;6.038;2023-02-10T22:23:38;94304.69;;;2.71
40968;BMP280;57377;45.130;6.038;2023-02-10T22:26:06;94317.34;;;2.79
40968;BMP280;57377;45.130;6.038;2023-02-10T22:28:31;94311.63;;;3.09
40968;BMP280;57377;45.130;6.038;2023-02-10T22:30:57;94310.63;;;2.78
40968;BMP280;57377;45.130;6.038;2023-02-10T22:33:22;94312.63;;;2.88
40968;BMP280;57377;45.130;6.038;2023-02-10T22:35:48;94307.28;;;2.96
40968;BMP280;57377;45.130;6.038;2023-02-10T22:38:13;94313.41;;;3.08